createdAt,value
2023-03-07T00:00:16.544Z,65.10
2023-03-07T00:02:43.822Z,65.30
2023-03-07T00:05:10.898Z,65.50
2023-03-07T00:07:38.668Z,65.40
2023-03-07T00:10:06.283Z,65.30
2023-03-07T00:12:33.195Z,65.30
2023-03-07T00:15:00.221Z,65.40
2023-03-07T00:17:27.166Z,66.10
2023-03-07T00:19:54.148Z,66.00
2023-03-07T00:22:21.052Z,66.30
2023-03-07T00:24:48.849Z,66.40
2023-03-07T00:27:15.830Z,66.20
2023-03-07T00:29:42.833Z,66.30
2023-03-07T00:32:09.883Z,66.30
2023-03-07T00:34:36.857Z,66.10
2023-03-07T00:37:03.787Z,66.70
2023-03-07T00:39:30.800Z,66.40
2023-03-07T00:41:57.730Z,66.20
2023-03-07T00:44:25.485Z,66.30
2023-03-07T00:46:52.901Z,66.40
2023-03-07T00:49:20.921Z,66.50
2023-03-07T00:51:48.405Z,66.70
2023-03-07T00:54:16.161Z,66.50
2023-03-07T00:56:43.814Z,66.70
2023-03-07T00:59:11.305Z,66.80
2023-03-07T01:01:38.620Z,66.90
2023-03-07T01:04:05.834Z,67.10
2023-03-07T01:06:34.966Z,66.90
2023-03-07T01:09:07.864Z,67.10
2023-03-07T01:11:37.202Z,67.00
2023-03-07T01:14:06.738Z,67.00
2023-03-07T01:16:38.036Z,67.00
2023-03-07T01:19:09.461Z,66.90
2023-03-07T01:21:40.277Z,67.20
2023-03-07T01:24:12.361Z,67.20
2023-03-07T01:26:39.537Z,67.30
2023-03-07T01:29:08.019Z,67.50
2023-03-07T01:31:36.416Z,67.50
2023-03-07T01:34:04.790Z,67.50
2023-03-07T01:36:35.718Z,67.70
2023-03-07T01:39:14.051Z,68.20
2023-03-07T01:42:03.480Z,68.20
2023-03-07T01:44:30.652Z,68.20
2023-03-07T01:47:00.530Z,68.10
2023-03-07T01:49:46.142Z,68.40
2023-03-07T01:52:22.281Z,68.40
2023-03-07T01:55:00.064Z,68.70
2023-03-07T01:57:33.289Z,68.40
2023-03-07T02:00:08.534Z,68.40
2023-03-07T02:02:42.888Z,68.20
2023-03-07T02:05:38.058Z,68.30
2023-03-07T02:08:08.784Z,68.10
2023-03-07T02:10:37.794Z,67.90
2023-03-07T02:13:05.360Z,67.80
2023-03-07T02:15:35.050Z,67.90
2023-03-07T02:18:03.608Z,67.80
2023-03-07T02:21:03.128Z,67.80
2023-03-07T02:23:41.636Z,67.70
2023-03-07T02:26:31.082Z,67.70
2023-03-07T02:29:00.681Z,67.60
2023-03-07T02:31:28.594Z,67.70
2023-03-07T02:33:55.470Z,67.80
2023-03-07T02:36:26.733Z,67.70
2023-03-07T02:39:09.033Z,67.60
2023-03-07T02:41:38.491Z,67.50
2023-03-07T02:44:13.060Z,68.40
2023-03-07T02:46:40.523Z,67.60
2023-03-07T02:49:07.593Z,67.60
2023-03-07T02:51:34.593Z,67.50
2023-03-07T02:54:01.643Z,67.40
2023-03-07T02:56:28.963Z,67.50
2023-03-07T02:58:56.307Z,67.50
2023-03-07T03:01:23.781Z,67.40
2023-03-07T03:03:50.981Z,67.30
2023-03-07T03:06:17.879Z,67.40
2023-03-07T03:08:44.931Z,67.30
2023-03-07T03:11:12.124Z,67.30
2023-03-07T03:13:40.061Z,67.30
2023-03-07T03:16:07.857Z,67.30
2023-03-07T03:18:35.005Z,67.20
2023-03-07T03:21:11.436Z,67.30
2023-03-07T03:23:39.039Z,67.30
2023-03-07T03:26:11.207Z,67.30
2023-03-07T03:28:40.277Z,67.30
2023-03-07T03:31:11.881Z,67.30
2023-03-07T03:33:40.312Z,67.40
2023-03-07T03:36:16.847Z,67.30
2023-03-07T03:38:46.613Z,67.30
2023-03-07T03:41:18.262Z,67.30
2023-03-07T03:43:48.291Z,67.30
2023-03-07T03:46:17.525Z,67.30
2023-03-07T03:48:44.693Z,67.30
2023-03-07T03:51:16.908Z,67.30
2023-03-07T03:53:43.993Z,67.30
2023-03-07T03:56:14.975Z,67.20
2023-03-07T03:58:42.970Z,67.20
2023-03-07T04:01:12.166Z,67.20
2023-03-07T04:03:42.484Z,67.30
2023-03-07T04:06:13.731Z,67.20
2023-03-07T04:08:41.802Z,67.20
2023-03-07T04:11:09.193Z,67.10
2023-03-07T04:13:36.997Z,67.10
2023-03-07T04:16:05.171Z,67.10
2023-03-07T04:18:32.293Z,67.10
2023-03-07T04:20:59.359Z,67.10
2023-03-07T04:23:28.065Z,67.10
2023-03-07T04:25:58.087Z,67.10
2023-03-07T04:28:41.917Z,67.00
2023-03-07T04:31:10.986Z,67.00
2023-03-07T04:33:38.091Z,66.90
2023-03-07T04:36:05.696Z,67.10
2023-03-07T04:38:32.969Z,67.00
2023-03-07T04:41:00.133Z,67.00
2023-03-07T04:43:27.453Z,66.90
2023-03-07T04:45:54.437Z,67.00
2023-03-07T04:48:21.736Z,67.10
2023-03-07T04:50:50.483Z,67.00
2023-03-07T04:53:19.505Z,66.90
2023-03-07T04:55:47.316Z,67.00
2023-03-07T04:58:15.095Z,67.00
2023-03-07T05:00:43.974Z,67.00
2023-03-07T05:03:13.033Z,67.00
2023-03-07T05:05:40.560Z,67.00
2023-03-07T05:08:08.465Z,66.90
2023-03-07T05:10:37.043Z,66.90
2023-03-07T05:13:04.798Z,66.90
2023-03-07T05:15:31.935Z,66.80
2023-03-07T05:17:58.970Z,66.80
2023-03-07T05:20:27.634Z,66.90
2023-03-07T05:22:54.656Z,66.90
2023-03-07T05:25:22.237Z,66.90
2023-03-07T05:27:49.995Z,66.90
2023-03-07T05:30:17.184Z,66.90
2023-03-07T05:32:44.121Z,66.90
2023-03-07T05:35:13.441Z,66.90
2023-03-07T05:37:41.739Z,66.90
2023-03-07T05:40:10.522Z,66.90
2023-03-07T05:42:41.727Z,66.90
2023-03-07T05:45:10.477Z,66.80
2023-03-07T05:47:38.900Z,66.80
2023-03-07T05:50:09.569Z,66.80
2023-03-07T05:52:37.264Z,67.70
2023-03-07T05:55:04.673Z,66.80
2023-03-07T05:57:32.995Z,66.70
2023-03-07T06:00:00.016Z,66.90
2023-03-07T06:02:27.135Z,66.90
2023-03-07T06:04:54.210Z,66.80
2023-03-07T06:07:21.287Z,66.90
2023-03-07T06:09:48.220Z,66.80
2023-03-07T06:12:15.337Z,66.80
2023-03-07T06:14:42.201Z,66.70
2023-03-07T06:17:09.299Z,66.60
2023-03-07T06:19:36.420Z,66.60
2023-03-07T06:22:04.016Z,66.70
2023-03-07T06:24:31.158Z,66.70
2023-03-07T06:26:58.875Z,66.70
2023-03-07T06:29:25.949Z,66.60
2023-03-07T06:31:52.840Z,66.70
2023-03-07T06:34:19.806Z,66.50
2023-03-07T06:36:48.728Z,66.60
2023-03-07T06:39:21.108Z,66.50
2023-03-07T06:41:51.167Z,66.50
2023-03-07T06:44:18.415Z,66.60
2023-03-07T06:46:46.471Z,66.50
2023-03-07T06:49:16.464Z,66.50
2023-03-07T06:51:46.574Z,66.40
2023-03-07T06:54:13.870Z,66.30
2023-03-07T06:56:41.408Z,66.10
2023-03-07T06:59:10.395Z,66.20
2023-03-07T07:01:37.369Z,66.10
2023-03-07T07:04:05.272Z,66.10
2023-03-07T07:06:32.544Z,66.00
2023-03-07T07:09:00.135Z,65.90
2023-03-07T07:11:31.988Z,65.90
2023-03-07T07:14:00.325Z,65.70
2023-03-07T07:16:27.447Z,65.80
2023-03-07T07:18:54.511Z,65.60
2023-03-07T07:21:22.487Z,65.50
2023-03-07T07:23:49.462Z,65.30
2023-03-07T07:26:16.471Z,65.60
2023-03-07T07:28:43.518Z,65.30
2023-03-07T07:31:10.397Z,65.10
2023-03-07T07:33:38.056Z,65.30
2023-03-07T07:36:07.560Z,65.40
2023-03-07T07:38:36.649Z,65.20
2023-03-07T07:41:04.037Z,65.20
2023-03-07T07:43:32.216Z,65.00
2023-03-07T07:46:09.621Z,64.90
2023-03-07T07:48:37.348Z,64.60
2023-03-07T07:51:05.860Z,64.50
2023-03-07T07:53:36.481Z,64.60
2023-03-07T07:56:03.754Z,64.60
2023-03-07T07:58:30.843Z,64.40
2023-03-07T08:00:58.344Z,64.20
2023-03-07T08:03:25.791Z,63.80
2023-03-07T08:05:53.644Z,63.90
2023-03-07T08:08:20.597Z,64.20
2023-03-07T08:10:48.842Z,63.70
2023-03-07T08:13:17.746Z,63.40
2023-03-07T08:15:44.829Z,63.10
2023-03-07T08:18:12.033Z,63.10
2023-03-07T08:20:39.664Z,63.30
2023-03-07T08:23:07.327Z,63.10
2023-03-07T08:25:34.340Z,62.70
2023-03-07T08:28:03.583Z,62.30
2023-03-07T08:30:33.148Z,62.30
2023-03-07T08:33:00.533Z,63.20
2023-03-07T08:35:31.673Z,62.40
2023-03-07T08:38:00.557Z,62.40
2023-03-07T08:40:31.541Z,62.10
2023-03-07T08:43:01.492Z,62.10
2023-03-07T08:45:28.495Z,62.20
2023-03-07T08:47:56.472Z,62.10
2023-03-07T08:50:27.815Z,62.00
2023-03-07T08:52:54.878Z,62.00
2023-03-07T08:55:21.885Z,61.70
2023-03-07T08:57:49.042Z,61.80
2023-03-07T09:00:17.800Z,61.70
2023-03-07T09:02:44.719Z,61.60
2023-03-07T09:05:11.672Z,61.10
2023-03-07T09:07:38.705Z,60.70
2023-03-07T09:10:06.435Z,61.00
2023-03-07T09:12:34.377Z,60.70
2023-03-07T09:15:01.398Z,61.20
2023-03-07T09:17:28.644Z,61.00
2023-03-07T09:19:56.697Z,61.10
2023-03-07T09:22:23.731Z,60.60
2023-03-07T09:24:50.572Z,60.70
2023-03-07T09:27:17.626Z,60.60
2023-03-07T09:29:45.370Z,60.40
2023-03-07T09:32:12.427Z,60.50
2023-03-07T09:34:40.670Z,60.60
2023-03-07T09:37:07.725Z,60.20
2023-03-07T09:39:34.692Z,60.10
2023-03-07T09:42:28.204Z,60.10
2023-03-07T09:45:10.710Z,59.90
2023-03-07T09:48:16.940Z,59.70
2023-03-07T09:51:03.439Z,60.10
2023-03-07T09:53:41.709Z,58.80
2023-03-07T09:56:35.533Z,59.20
2023-03-07T09:59:38.538Z,58.00
2023-03-07T10:02:17.687Z,58.80
2023-03-07T10:04:54.960Z,58.60
2023-03-07T10:07:25.769Z,58.70
2023-03-07T10:10:00.497Z,60.30
2023-03-07T10:12:48.311Z,59.10
2023-03-07T10:15:33.239Z,59.10
2023-03-07T10:18:27.589Z,59.40
2023-03-07T10:21:31.176Z,57.90
2023-03-07T10:24:22.379Z,57.60
2023-03-07T10:27:15.541Z,58.40
2023-03-07T10:29:49.800Z,57.50
2023-03-07T10:33:01.518Z,57.20
2023-03-07T10:36:12.983Z,57.30
2023-03-07T10:39:04.651Z,54.90
2023-03-07T10:41:31.539Z,56.00
2023-03-07T10:43:58.625Z,54.00
2023-03-07T10:46:30.726Z,54.10
2023-03-07T10:49:09.451Z,57.10
2023-03-07T10:52:02.133Z,56.70
2023-03-07T10:54:35.474Z,56.60
2023-03-07T10:57:19.508Z,56.70
2023-03-07T10:59:48.704Z,56.90
2023-03-07T11:02:32.272Z,55.70
2023-03-07T11:04:59.775Z,55.00
2023-03-07T11:07:35.892Z,54.50
2023-03-07T11:10:27.666Z,54.50
2023-03-07T11:12:56.326Z,54.60
2023-03-07T11:15:24.699Z,54.70
2023-03-07T11:17:52.737Z,54.80
2023-03-07T11:20:30.941Z,55.10
2023-03-07T11:23:24.479Z,54.40
2023-03-07T11:25:53.736Z,54.50
2023-03-07T11:28:35.635Z,53.40
2023-03-07T11:31:32.064Z,54.40
2023-03-07T11:34:27.928Z,53.10
2023-03-07T11:37:33.896Z,53.30
2023-03-07T11:40:09.448Z,54.40
2023-03-07T11:42:58.955Z,54.00
2023-03-07T11:45:43.235Z,53.80
2023-03-07T11:48:22.048Z,53.60
2023-03-07T11:50:57.528Z,53.30
2023-03-07T11:53:51.771Z,51.50
2023-03-07T11:56:26.319Z,51.70
2023-03-07T11:59:53.948Z,50.60
2023-03-07T12:02:38.644Z,51.60
2023-03-07T12:05:37.451Z,52.00
2023-03-07T12:08:32.071Z,52.40
2023-03-07T12:11:19.705Z,51.10
2023-03-07T12:14:25.058Z,51.90
2023-03-07T12:17:08.952Z,50.80
2023-03-07T12:19:57.313Z,50.00
2023-03-07T12:22:52.816Z,50.20
2023-03-07T12:25:39.625Z,49.90
2023-03-07T12:28:44.579Z,50.40
2023-03-07T12:31:16.334Z,50.00
2023-03-07T12:34:09.685Z,48.80
2023-03-07T12:36:52.607Z,49.30
2023-03-07T12:39:33.146Z,48.00
2023-03-07T12:42:06.522Z,46.10
2023-03-07T12:44:43.335Z,45.80
2023-03-07T12:47:25.285Z,46.00
2023-03-07T12:50:35.331Z,46.10
2023-03-07T12:53:30.812Z,47.00
2023-03-07T12:56:22.397Z,47.50
2023-03-07T12:59:07.426Z,47.30
2023-03-07T13:02:01.901Z,47.90
2023-03-07T13:04:40.684Z,47.10
2023-03-07T13:07:33.426Z,45.80
2023-03-07T13:10:05.043Z,45.70
2023-03-07T13:12:35.310Z,43.40
2023-03-07T13:15:25.497Z,41.40
2023-03-07T13:17:52.390Z,40.80
2023-03-07T13:20:28.293Z,39.60
2023-03-07T13:22:57.906Z,40.50
2023-03-07T13:25:48.949Z,38.90
2023-03-07T13:28:48.758Z,36.10
2023-03-07T13:31:15.598Z,38.40
2023-03-07T13:33:43.659Z,35.80
2023-03-07T13:36:38.723Z,34.80
2023-03-07T13:39:37.958Z,36.10
2023-03-07T13:42:05.112Z,38.10
2023-03-07T13:44:40.963Z,36.50
2023-03-07T13:47:56.221Z,36.80
2023-03-07T13:50:52.283Z,37.00
2023-03-07T13:53:34.107Z,36.70
2023-03-07T13:56:28.510Z,33.80
2023-03-07T13:59:16.576Z,35.50
2023-03-07T14:01:47.472Z,35.80
2023-03-07T14:04:39.453Z,34.00
2023-03-07T14:07:22.968Z,33.70
2023-03-07T14:09:54.975Z,33.20
2023-03-07T14:13:01.114Z,32.90
2023-03-07T14:16:08.411Z,32.50
2023-03-07T14:19:04.293Z,34.20
2023-03-07T14:21:55.933Z,33.00
2023-03-07T14:24:51.881Z,34.40
2023-03-07T14:27:18.915Z,33.60
2023-03-07T14:29:57.023Z,33.70
2023-03-07T14:32:31.506Z,34.70
2023-03-07T14:34:59.645Z,32.40
2023-03-07T14:37:31.130Z,32.70
2023-03-07T14:40:09.870Z,33.10
2023-03-07T14:43:04.806Z,32.20
2023-03-07T14:45:52.966Z,31.80
2023-03-07T14:48:54.658Z,32.40
2023-03-07T14:51:26.451Z,32.10
2023-03-07T14:53:53.553Z,32.20
2023-03-07T14:56:32.165Z,32.40
2023-03-07T14:59:02.669Z,33.00
2023-03-07T15:01:38.819Z,33.40
2023-03-07T15:04:27.853Z,33.30
2023-03-07T15:06:59.090Z,34.00
2023-03-07T15:09:27.392Z,33.80
2023-03-07T15:12:20.634Z,33.60
2023-03-07T15:14:55.083Z,33.90
2023-03-07T15:17:43.604Z,34.20
2023-03-07T15:20:22.061Z,34.40
2023-03-07T15:22:49.371Z,35.10
2023-03-07T15:25:25.362Z,34.80
2023-03-07T15:28:17.617Z,34.70
2023-03-07T15:30:52.145Z,34.70
2023-03-07T15:33:20.065Z,33.80
2023-03-07T15:36:11.574Z,34.20
2023-03-07T15:38:48.065Z,34.40
2023-03-07T15:41:36.365Z,34.10
2023-03-07T15:44:12.556Z,34.40
2023-03-07T15:46:46.977Z,34.70
2023-03-07T15:49:26.198Z,34.50
2023-03-07T15:51:59.561Z,34.50
2023-03-07T15:54:32.052Z,34.90
2023-03-07T15:57:04.791Z,35.30
2023-03-07T15:59:57.737Z,35.60
2023-03-07T16:02:44.575Z,35.20
2023-03-07T16:05:23.528Z,35.80
2023-03-07T16:07:53.414Z,36.50
2023-03-07T16:10:21.623Z,36.80
2023-03-07T16:12:49.865Z,37.40
2023-03-07T16:15:21.242Z,37.70
2023-03-07T16:17:56.273Z,37.90
2023-03-07T16:20:28.361Z,38.10
2023-03-07T16:22:56.193Z,38.20
2023-03-07T16:25:26.831Z,38.60
2023-03-07T16:27:57.569Z,38.80
2023-03-07T16:30:30.676Z,39.10
2023-03-07T16:32:57.798Z,39.20
2023-03-07T16:35:27.822Z,39.40
2023-03-07T16:37:55.986Z,39.80
2023-03-07T16:40:23.732Z,40.00
2023-03-07T16:42:51.103Z,40.20
2023-03-07T16:45:31.376Z,40.10
2023-03-07T16:48:05.001Z,40.00
2023-03-07T16:50:33.438Z,41.10
2023-03-07T16:53:00.703Z,41.00
2023-03-07T16:55:28.103Z,41.80
2023-03-07T16:58:00.916Z,41.90
2023-03-07T17:00:28.925Z,41.90
2023-03-07T17:03:00.276Z,42.20
2023-03-07T17:05:29.900Z,42.30
2023-03-07T17:07:58.596Z,42.40
2023-03-07T17:10:27.000Z,42.50
2023-03-07T17:12:59.017Z,43.30
2023-03-07T17:15:30.491Z,45.00
2023-03-07T17:17:59.400Z,45.30
2023-03-07T17:20:27.117Z,45.50
2023-03-07T17:22:54.266Z,46.00
2023-03-07T17:25:22.822Z,46.20
2023-03-07T17:27:55.800Z,45.80
2023-03-07T17:30:27.410Z,46.00
2023-03-07T17:32:54.618Z,46.00
2023-03-07T17:35:22.064Z,46.10
2023-03-07T17:37:52.857Z,46.40
2023-03-07T17:40:21.142Z,46.50
2023-03-07T17:42:51.307Z,46.40
2023-03-07T17:45:18.911Z,46.70
2023-03-07T17:47:50.238Z,46.70
2023-03-07T17:50:19.382Z,47.10
2023-03-07T17:52:46.402Z,47.70
2023-03-07T17:55:15.513Z,47.50
2023-03-07T17:57:43.392Z,48.00
2023-03-07T18:00:13.721Z,48.00
2023-03-07T18:02:44.093Z,48.20
2023-03-07T18:05:13.110Z,48.70
2023-03-07T18:07:41.415Z,48.80
2023-03-07T18:10:10.246Z,49.20
2023-03-07T18:12:39.031Z,49.10
2023-03-07T18:15:11.193Z,49.30
2023-03-07T18:17:47.341Z,49.30
2023-03-07T18:20:19.032Z,49.30
2023-03-07T18:22:46.591Z,51.40
2023-03-07T18:25:15.845Z,50.60
2023-03-07T18:27:43.727Z,51.40
2023-03-07T18:30:11.948Z,51.50
2023-03-07T18:32:39.028Z,51.40
2023-03-07T18:35:06.875Z,51.80
2023-03-07T18:37:34.012Z,51.80
2023-03-07T18:40:01.045Z,51.70
2023-03-07T18:42:28.021Z,51.50
2023-03-07T18:44:55.009Z,51.40
2023-03-07T18:47:21.975Z,52.20
2023-03-07T18:49:51.212Z,51.70
2023-03-07T18:52:18.815Z,51.50
2023-03-07T18:54:45.727Z,52.00
2023-03-07T18:57:12.729Z,52.00
2023-03-07T18:59:39.854Z,52.60
2023-03-07T19:02:08.971Z,52.40
2023-03-07T19:04:35.903Z,52.40
2023-03-07T19:07:03.974Z,52.40
2023-03-07T19:09:31.625Z,52.30
2023-03-07T19:11:59.050Z,52.20
2023-03-07T19:14:26.457Z,52.20
2023-03-07T19:16:53.566Z,52.60
2023-03-07T19:19:20.823Z,52.70
2023-03-07T19:21:47.863Z,53.20
2023-03-07T19:24:14.918Z,53.40
2023-03-07T19:26:43.236Z,53.80
2023-03-07T19:29:12.145Z,53.80
2023-03-07T19:31:40.879Z,53.40
2023-03-07T19:34:08.981Z,53.80
2023-03-07T19:36:37.308Z,53.90
2023-03-07T19:39:05.098Z,54.00
2023-03-07T19:41:32.758Z,54.20
2023-03-07T19:44:01.307Z,54.30
2023-03-07T19:46:28.510Z,55.60
2023-03-07T19:48:56.692Z,55.20
2023-03-07T19:51:26.373Z,55.40
2023-03-07T19:53:57.155Z,56.30
2023-03-07T19:56:30.699Z,56.00
2023-03-07T19:59:00.930Z,55.60
2023-03-07T20:01:29.300Z,56.70
2023-03-07T20:03:56.991Z,56.00
2023-03-07T20:06:29.956Z,55.90
2023-03-07T20:08:58.624Z,56.10
2023-03-07T20:11:32.225Z,56.10
2023-03-07T20:14:03.580Z,56.40
2023-03-07T20:16:32.217Z,56.20
2023-03-07T20:19:02.948Z,56.50
2023-03-07T20:21:30.548Z,56.40
2023-03-07T20:24:00.750Z,57.00
2023-03-07T20:26:36.613Z,57.00
2023-03-07T20:29:06.142Z,57.10
2023-03-07T20:31:33.786Z,57.70
2023-03-07T20:34:01.289Z,57.80
2023-03-07T20:36:31.426Z,58.40
2023-03-07T20:39:01.720Z,58.10
2023-03-07T20:41:31.850Z,58.70
2023-03-07T20:44:03.941Z,58.20
2023-03-07T20:46:32.194Z,59.00
2023-03-07T20:49:00.934Z,57.80
2023-03-07T20:51:31.836Z,58.40
2023-03-07T20:54:16.021Z,58.60
2023-03-07T20:56:45.292Z,59.10
2023-03-07T20:59:18.244Z,59.10
2023-03-07T21:01:45.772Z,60.30
2023-03-07T21:04:15.801Z,59.40
2023-03-07T21:06:45.552Z,59.40
2023-03-07T21:09:16.056Z,59.80
2023-03-07T21:11:46.318Z,59.40
2023-03-07T21:14:15.697Z,59.40
2023-03-07T21:16:43.745Z,60.30
2023-03-07T21:19:11.626Z,59.60
2023-03-07T21:21:39.424Z,60.10
2023-03-07T21:24:07.329Z,60.20
2023-03-07T21:26:36.468Z,60.30
2023-03-07T21:29:04.789Z,60.30
2023-03-07T21:31:34.868Z,60.20
2023-03-07T21:34:06.326Z,60.00
2023-03-07T21:36:33.982Z,60.30
2023-03-07T21:39:04.146Z,60.30
2023-03-07T21:41:31.337Z,60.10
2023-03-07T21:43:58.465Z,60.10
2023-03-07T21:46:26.439Z,60.70
2023-03-07T21:48:53.952Z,60.30
2023-03-07T21:51:21.434Z,60.40
2023-03-07T21:53:48.638Z,60.00
2023-03-07T21:56:17.285Z,60.30
2023-03-07T21:58:48.879Z,60.00
2023-03-07T22:01:23.065Z,60.00
2023-03-07T22:03:55.554Z,60.20
2023-03-07T22:06:23.864Z,60.30
2023-03-07T22:08:50.894Z,60.30
2023-03-07T22:11:17.913Z,60.80
2023-03-07T22:13:44.848Z,60.50
2023-03-07T22:16:16.270Z,60.50
2023-03-07T22:18:43.458Z,60.50
2023-03-07T22:21:18.181Z,61.00
2023-03-07T22:23:45.820Z,61.40
2023-03-07T22:26:13.037Z,61.30
2023-03-07T22:28:41.229Z,61.00
2023-03-07T22:31:11.599Z,61.00
2023-03-07T22:33:39.411Z,61.10
2023-03-07T22:36:08.789Z,60.90
2023-03-07T22:38:35.825Z,61.00
2023-03-07T22:41:23.202Z,60.90
2023-03-07T22:43:50.247Z,60.90
2023-03-07T22:46:17.221Z,60.90
2023-03-07T22:48:44.144Z,60.60
2023-03-07T22:51:18.004Z,60.90
2023-03-07T22:53:45.817Z,60.90
2023-03-07T22:56:27.440Z,60.90
2023-03-07T22:58:54.598Z,60.80
2023-03-07T23:01:25.440Z,60.90
2023-03-07T23:03:54.478Z,61.70
2023-03-07T23:06:23.031Z,60.40
2023-03-07T23:08:53.094Z,60.50
2023-03-07T23:11:22.413Z,60.50
2023-03-07T23:13:49.837Z,60.30
2023-03-07T23:16:20.489Z,60.50
2023-03-07T23:18:50.662Z,60.30
2023-03-07T23:21:20.924Z,60.30
2023-03-07T23:23:51.697Z,60.20
2023-03-07T23:26:26.557Z,60.10
2023-03-07T23:28:54.354Z,60.10
2023-03-07T23:31:32.070Z,60.10
2023-03-07T23:34:02.362Z,60.10
2023-03-07T23:36:31.333Z,60.00
2023-03-07T23:39:00.002Z,60.00
2023-03-07T23:41:27.790Z,60.20
2023-03-07T23:43:59.888Z,60.00
2023-03-07T23:46:27.974Z,60.00
2023-03-07T23:48:55.152Z,59.90
2023-03-07T23:51:22.821Z,59.70
2023-03-07T23:53:50.208Z,59.80
2023-03-07T23:56:17.314Z,59.90
2023-03-07T23:58:47.305Z,59.90
